Proctor, Montana
Current Conditions -  °F | °C
As of 2:55 PM on Monday 24 Nov 2014 (Local Time) from KGPI Reporting Station
Overcast Overcast  
Wind Chill: 33°   Ceiling: 9000
Heat Index: 38°   Visibility: 10mi
Dew Point: 26°   Wind: 7mph
Humidity: 62%   Direction: 200°SSW
Pressure: 30.23"   Gusts: NA
Location:  47.92°N, 114.37°W
Report Text: KGPI 242155Z 20006KT 10SM OVC090 03/M03 A3023 RMK AO2 SLP259 T00331033
Loading
Personal Weather Stations






























Interactive Weather Map New forecast layout! Learn more

10-Day Weather Forecast

Advertisements
Track Severe Weather on mobile